Time;durP1;ratioP1;P1;durP2;ratioP2;P2;SDS_P1;SDS_P2;PMS_P1;PMS_P2;Temp;Humidity;BMP_temperature;BMP_pressure;BME280_temperature;BME280_humidity;BME280_pressure;Samples;Min_cycle;Max_cycle;Signal;HPM_P1;HPM_P2
2022/10/10 00:01:12;;;;;;;2.93;1.70;;;;;;;;;;5016479;28;20220;-76
2022/10/10 00:03:38;;;;;;;4.83;1.87;;;;;;;;;;5018047;28;20239;-74
2022/10/10 00:06:04;;;;;;;2.60;1.30;;;;;;;;;;4996772;28;20241;-75
2022/10/10 00:08:32;;;;;;;3.27;1.63;;;;;;;;;;4982976;28;20244;-75
2022/10/10 00:10:57;;;;;;;2.50;1.37;;;;;;;;;;4998839;28;20236;-76
2022/10/10 00:13:26;;;;;;;3.30;1.70;;;;;;;;;;5003052;28;20244;-75
2022/10/10 00:15:54;;;;;;;4.47;1.67;;;;;;;;;;5017386;28;20234;-77
2022/10/10 00:18:19;;;;;;;2.43;1.50;;;;;;;;;;5013494;28;20224;-77
2022/10/10 00:20:47;;;;;;;4.83;2.20;;;;;;;;;;5011943;28;20229;-77
2022/10/10 00:23:12;;;;;;;1.93;1.50;;;;;;;;;;4996424;28;20230;-77
2022/10/10 00:25:45;;;;;;;4.83;1.63;;;;;;;;;;4996533;28;20308;-77
2022/10/10 00:28:15;;;;;;;5.30;1.83;;;;;;;;;;5017171;28;20231;-76
2022/10/10 00:30:41;;;;;;;4.63;1.77;;;;;;;;;;4999073;28;20683;-78
2022/10/10 00:33:07;;;;;;;4.40;1.77;;;;;;;;;;4981708;28;20220;-78
2022/10/10 00:35:35;;;;;;;4.27;1.53;;;;;;;;;;5000293;28;20212;-77
2022/10/10 00:38:05;;;;;;;3.57;2.03;;;;;;;;;;4996179;28;20227;-77
2022/10/10 00:40:33;;;;;;;2.90;1.50;;;;;;;;;;5015696;28;20235;-77
2022/10/10 00:43:01;;;;;;;3.20;1.60;;;;;;;;;;5012460;28;20232;-77
2022/10/10 00:45:39;;;;;;;4.20;1.50;;;;;;;;;;4994921;28;20599;-77
2022/10/10 00:48:10;;;;;;;3.33;1.70;;;;;;;;;;5013662;28;20225;-78
2022/10/10 00:50:38;;;;;;;2.67;1.30;;;;;;;;;;5017133;28;20268;-77
2022/10/10 00:53:04;;;;;;;4.93;1.83;;;;;;;;;;4979547;28;20237;-77
2022/10/10 00:55:32;;;;;;;3.13;1.70;;;;;;;;;;4999299;28;20220;-77
2022/10/10 00:57:57;;;;;;;4.47;1.80;;;;;;;;;;5013284;28;20217;-77
2022/10/10 01:00:25;;;;;;;2.73;1.50;;;;;;;;;;4970849;28;20686;-77
2022/10/10 01:02:55;;;;;;;3.77;1.50;;;;;;;;;;5013081;28;20707;-77
2022/10/10 01:05:21;;;;;;;4.57;1.70;;;;;;;;;;5001034;28;20254;-77
2022/10/10 01:07:46;;;;;;;3.20;1.53;;;;;;;;;;4998590;28;20702;-77
2022/10/10 01:10:14;;;;;;;4.23;1.73;;;;;;;;;;5000665;28;20745;-77
2022/10/10 01:13:12;;;;;;;3.47;1.70;;;;;;;;;;4982502;28;20233;-77
2022/10/10 01:15:38;;;;;;;3.53;1.90;;;;;;;;;;5012603;28;20642;-77
2022/10/10 01:18:25;;;;;;;5.43;1.80;;;;;;;;;;5014740;28;20283;-77
2022/10/10 01:21:02;;;;;;;2.50;1.70;;;;;;;;;;5001937;28;20604;-76
2022/10/10 01:23:35;;;;;;;6.83;1.67;;;;;;;;;;5032877;28;20796;-77
2022/10/10 01:26:23;;;;;;;7.50;1.70;;;;;;;;;;5000415;28;20264;-76
2022/10/10 01:29:03;;;;;;;3.50;1.87;;;;;;;;;;5011487;28;20311;-77
2022/10/10 01:31:31;;;;;;;5.77;1.83;;;;;;;;;;5017612;28;20754;-77
2022/10/10 01:34:06;;;;;;;10.20;2.10;;;;;;;;;;4999614;28;20221;-76
2022/10/10 01:36:44;;;;;;;3.20;1.80;;;;;;;;;;5002092;28;20228;-77
2022/10/10 01:39:34;;;;;;;4.73;1.80;;;;;;;;;;4966168;28;20225;-77
2022/10/10 01:42:06;;;;;;;4.87;2.10;;;;;;;;;;5003996;28;20254;-77
2022/10/10 01:44:32;;;;;;;3.57;1.80;;;;;;;;;;4984608;28;20220;-77
2022/10/10 01:47:00;;;;;;;3.70;1.77;;;;;;;;;;5001298;28;20303;-77
2022/10/10 01:49:29;;;;;;;4.87;1.90;;;;;;;;;;5000862;28;20225;-77
2022/10/10 01:52:17;;;;;;;3.10;2.10;;;;;;;;;;4983757;28;20224;-77
2022/10/10 01:54:58;;;;;;;2.80;1.63;;;;;;;;;;5032295;28;20232;-77
2022/10/10 01:57:41;;;;;;;8.23;2.00;;;;;;;;;;4994092;28;20638;-77
2022/10/10 02:00:13;;;;;;;3.57;2.07;;;;;;;;;;5016096;28;20312;-79
2022/10/10 02:02:53;;;;;;;3.73;1.70;;;;;;;;;;5004252;28;20650;-77
2022/10/10 02:05:27;;;;;;;5.00;1.90;;;;;;;;;;5019900;28;20225;-77
2022/10/10 02:07:54;;;;;;;3.70;1.77;;;;;;;;;;5017158;28;20229;-77
2022/10/10 02:10:24;;;;;;;4.53;1.87;;;;;;;;;;5017873;28;20726;-76
2022/10/10 02:12:52;;;;;;;3.17;1.80;;;;;;;;;;4985991;28;20224;-77
2022/10/10 02:15:25;;;;;;;4.90;2.10;;;;;;;;;;5011995;28;20300;-77
2022/10/10 02:17:55;;;;;;;4.30;1.83;;;;;;;;;;5001259;28;20996;-76
2022/10/10 02:20:25;;;;;;;2.60;1.80;;;;;;;;;;4985794;28;20738;-76
2022/10/10 02:22:52;;;;;;;3.77;2.00;;;;;;;;;;4998038;28;20232;-76
2022/10/10 02:25:23;;;;;;;4.20;2.40;;;;;;;;;;5000703;28;20263;-77
2022/10/10 02:28:16;;;;;;;2.77;1.90;;;;;;;;;;5015451;28;20255;-76
2022/10/10 02:30:47;;;;;;;4.77;1.93;;;;;;;;;;5017568;28;20243;-76
2022/10/10 02:33:17;;;;;;;3.70;1.80;;;;;;;;;;4999171;28;20311;-76
2022/10/10 02:35:48;;;;;;;4.33;1.83;;;;;;;;;;4983277;28;20608;-76
2022/10/10 02:38:13;;;;;;;4.63;2.23;;;;;;;;;;5009471;28;20228;-76
2022/10/10 02:40:39;;;;;;;3.07;1.80;;;;;;;;;;4997653;28;20227;-76
2022/10/10 02:43:09;;;;;;;4.07;1.83;;;;;;;;;;4999694;28;20220;-77
2022/10/10 02:45:40;;;;;;;3.90;2.20;;;;;;;;;;4987011;28;20374;-76
2022/10/10 02:48:10;;;;;;;2.10;1.80;;;;;;;;;;4984288;28;20667;-76
2022/10/10 02:50:37;;;;;;;3.93;1.80;;;;;;;;;;4983332;28;20602;-76
2022/10/10 02:53:03;;;;;;;3.20;1.90;;;;;;;;;;4966283;28;20225;-77
2022/10/10 02:55:28;;;;;;;3.60;2.33;;;;;;;;;;5000224;28;20232;-76
2022/10/10 02:57:56;;;;;;;5.27;2.13;;;;;;;;;;5003072;28;20224;-75
2022/10/10 03:00:21;;;;;;;3.90;2.33;;;;;;;;;;4984106;28;20220;-76
2022/10/10 03:02:47;;;;;;;7.57;2.40;;;;;;;;;;4995693;28;20611;-76
2022/10/10 03:05:14;;;;;;;2.53;1.87;;;;;;;;;;5012905;28;20251;-76
2022/10/10 03:07:42;;;;;;;4.47;2.20;;;;;;;;;;4999714;28;20320;-76
2022/10/10 03:10:08;;;;;;;3.80;2.23;;;;;;;;;;4999666;28;20239;-76
2022/10/10 03:12:36;;;;;;;5.07;2.07;;;;;;;;;;5016561;28;20225;-76
2022/10/10 03:15:07;;;;;;;4.20;2.13;;;;;;;;;;5000150;28;20683;-77
2022/10/10 03:17:35;;;;;;;6.23;2.67;;;;;;;;;;4999297;28;20235;-77
2022/10/10 03:20:03;;;;;;;5.10;2.20;;;;;;;;;;4979902;28;20896;-76
2022/10/10 03:22:28;;;;;;;6.17;2.30;;;;;;;;;;4997063;28;20715;-78
2022/10/10 03:24:56;;;;;;;3.77;2.30;;;;;;;;;;4999223;28;20228;-75
2022/10/10 03:27:23;;;;;;;6.77;2.87;;;;;;;;;;4997595;28;20681;-76
2022/10/10 03:29:49;;;;;;;3.10;2.33;;;;;;;;;;4982242;28;20611;-76
2022/10/10 03:32:28;;;;;;;3.17;2.70;;;;;;;;;;4978168;28;20217;-75
2022/10/10 03:34:59;;;;;;;5.80;2.27;;;;;;;;;;4970676;28;20228;-74
2022/10/10 03:37:24;;;;;;;4.83;2.23;;;;;;;;;;4998336;28;20639;-76
2022/10/10 03:39:49;;;;;;;4.20;2.10;;;;;;;;;;5017371;28;20243;-76
2022/10/10 03:42:15;;;;;;;3.67;2.30;;;;;;;;;;5018273;28;20304;-74
2022/10/10 03:44:40;;;;;;;2.90;2.00;;;;;;;;;;5015227;28;20227;-76
2022/10/10 03:47:08;;;;;;;6.07;2.40;;;;;;;;;;4984768;28;20664;-75
2022/10/10 03:49:36;;;;;;;2.97;1.93;;;;;;;;;;4999522;28;20232;-74
2022/10/10 03:52:01;;;;;;;4.57;2.07;;;;;;;;;;4996876;28;20319;-76
2022/10/10 03:54:29;;;;;;;2.17;1.90;;;;;;;;;;4996729;28;20212;-75
2022/10/10 03:56:57;;;;;;;3.73;2.40;;;;;;;;;;5010268;28;20228;-76
2022/10/10 03:59:27;;;;;;;5.17;2.30;;;;;;;;;;5012456;28;20224;-76
2022/10/10 04:01:54;;;;;;;4.43;2.40;;;;;;;;;;5001887;28;20225;-76
2022/10/10 04:04:23;;;;;;;3.17;2.30;;;;;;;;;;5013574;28;20325;-74
2022/10/10 04:06:51;;;;;;;7.67;2.80;;;;;;;;;;5010619;28;20700;-75
2022/10/10 04:09:16;;;;;;;4.13;2.37;;;;;;;;;;5010888;28;20231;-75
2022/10/10 04:11:42;;;;;;;3.33;2.33;;;;;;;;;;4966071;28;20270;-75
2022/10/10 04:14:07;;;;;;;4.13;2.30;;;;;;;;;;5012193;28;20250;-75
2022/10/10 04:16:35;;;;;;;6.23;2.60;;;;;;;;;;5008664;28;20228;-75
2022/10/10 04:19:00;;;;;;;5.17;2.67;;;;;;;;;;5013893;28;20220;-75
2022/10/10 04:21:26;;;;;;;5.10;2.70;;;;;;;;;;4997368;28;20212;-75
2022/10/10 04:23:56;;;;;;;3.87;2.37;;;;;;;;;;4998272;28;20212;-76
2022/10/10 04:26:21;;;;;;;5.00;2.37;;;;;;;;;;4996536;28;20374;-74
2022/10/10 04:28:47;;;;;;;3.87;2.83;;;;;;;;;;5011397;28;20228;-75
2022/10/10 04:31:13;;;;;;;6.63;3.10;;;;;;;;;;5012812;28;20287;-75
2022/10/10 04:33:40;;;;;;;5.77;3.10;;;;;;;;;;5016968;28;20258;-75
2022/10/10 04:36:06;;;;;;;4.70;3.00;;;;;;;;;;5008471;28;20236;-76
2022/10/10 04:38:37;;;;;;;4.47;3.00;;;;;;;;;;5010792;28;20576;-75
2022/10/10 04:41:05;;;;;;;5.27;2.90;;;;;;;;;;4978519;28;20252;-74
2022/10/10 04:43:35;;;;;;;5.63;2.73;;;;;;;;;;4999391;28;20239;-76
2022/10/10 04:46:02;;;;;;;4.17;2.77;;;;;;;;;;4995534;28;20338;-74
2022/10/10 04:48:30;;;;;;;5.13;3.10;;;;;;;;;;5014243;28;20228;-75
2022/10/10 04:50:57;;;;;;;3.73;2.60;;;;;;;;;;5018627;28;20236;-75
2022/10/10 04:53:25;;;;;;;6.00;3.07;;;;;;;;;;4997504;28;20240;-74
2022/10/10 04:55:51;;;;;;;5.10;3.10;;;;;;;;;;5013925;28;20242;-74
2022/10/10 04:58:16;;;;;;;4.97;2.60;;;;;;;;;;5029117;28;20270;-75
2022/10/10 05:00:42;;;;;;;3.47;2.83;;;;;;;;;;5013732;28;20235;-75
2022/10/10 05:03:09;;;;;;;5.73;2.93;;;;;;;;;;5005927;28;20228;-75
2022/10/10 05:05:34;;;;;;;6.30;3.17;;;;;;;;;;4997967;28;20225;-75
2022/10/10 05:08:04;;;;;;;2.90;2.60;;;;;;;;;;4989181;28;20227;-76
2022/10/10 05:10:38;;;;;;;4.07;2.87;;;;;;;;;;4996356;28;20337;-75
2022/10/10 05:13:09;;;;;;;5.13;2.90;;;;;;;;;;4992094;28;20270;-78
2022/10/10 05:15:39;;;;;;;5.60;3.40;;;;;;;;;;4997095;28;20229;-74
2022/10/10 05:18:05;;;;;;;4.63;2.87;;;;;;;;;;4998042;28;20224;-75
2022/10/10 05:20:33;;;;;;;3.10;2.80;;;;;;;;;;4995481;28;20702;-75
2022/10/10 05:22:58;;;;;;;4.63;3.07;;;;;;;;;;5006962;28;20220;-76
2022/10/10 05:25:24;;;;;;;3.20;2.80;;;;;;;;;;5016970;28;20243;-75
2022/10/10 05:27:50;;;;;;;4.73;2.67;;;;;;;;;;5015113;28;20228;-75
2022/10/10 05:30:16;;;;;;;4.67;2.77;;;;;;;;;;4997364;28;20236;-75
2022/10/10 05:32:44;;;;;;;5.20;2.93;;;;;;;;;;5009587;28;20264;-75
2022/10/10 05:35:11;;;;;;;6.70;2.77;;;;;;;;;;4994919;28;20224;-76
2022/10/10 05:37:39;;;;;;;3.17;2.87;;;;;;;;;;4989994;28;20303;-75
2022/10/10 05:40:11;;;;;;;4.47;2.77;;;;;;;;;;5008730;28;20229;-76
2022/10/10 05:42:46;;;;;;;3.53;2.57;;;;;;;;;;5002855;28;20228;-77
2022/10/10 05:45:11;;;;;;;6.33;3.20;;;;;;;;;;5015245;28;20347;-75
2022/10/10 05:47:39;;;;;;;7.30;2.93;;;;;;;;;;5011545;28;20260;-76
2022/10/10 05:50:05;;;;;;;4.57;3.27;;;;;;;;;;4979736;28;20227;-74
2022/10/10 05:52:31;;;;;;;5.70;3.33;;;;;;;;;;4995982;28;20221;-75
2022/10/10 05:54:56;;;;;;;4.67;3.10;;;;;;;;;;4996416;28;20230;-75
2022/10/10 05:57:26;;;;;;;10.83;3.50;;;;;;;;;;5014894;28;20220;-76
2022/10/10 05:59:54;;;;;;;7.83;3.27;;;;;;;;;;4996627;28;20236;-75
2022/10/10 06:02:20;;;;;;;5.87;3.13;;;;;;;;;;4991539;28;20306;-74
2022/10/10 06:04:47;;;;;;;5.47;2.70;;;;;;;;;;5014771;28;20748;-76
2022/10/10 06:07:15;;;;;;;8.17;3.90;;;;;;;;;;5016306;28;20272;-75
2022/10/10 06:09:40;;;;;;;5.53;3.70;;;;;;;;;;4999734;28;20232;-74
2022/10/10 06:12:06;;;;;;;6.10;4.43;;;;;;;;;;5000533;28;20232;-75
2022/10/10 06:14:31;;;;;;;7.40;3.60;;;;;;;;;;4995972;28;20251;-75
2022/10/10 06:17:02;;;;;;;6.37;3.80;;;;;;;;;;5013647;28;20233;-74
2022/10/10 06:19:27;;;;;;;4.67;3.07;;;;;;;;;;4999785;28;20231;-74
2022/10/10 06:21:53;;;;;;;4.47;3.13;;;;;;;;;;5000788;28;20235;-77
2022/10/10 06:24:18;;;;;;;4.47;3.03;;;;;;;;;;5033555;28;20716;-73
2022/10/10 06:26:44;;;;;;;5.10;3.80;;;;;;;;;;5004081;28;20224;-76
2022/10/10 06:29:09;;;;;;;7.93;4.70;;;;;;;;;;5002653;28;20276;-74
2022/10/10 06:31:40;;;;;;;5.47;3.00;;;;;;;;;;5016718;28;20319;-74
2022/10/10 06:34:05;;;;;;;5.70;3.53;;;;;;;;;;4996957;28;20229;-74
2022/10/10 06:36:31;;;;;;;5.10;2.90;;;;;;;;;;4998487;28;20577;-74
2022/10/10 06:38:59;;;;;;;6.07;3.90;;;;;;;;;;4982455;28;20220;-74
2022/10/10 06:41:25;;;;;;;3.70;3.23;;;;;;;;;;4983310;28;20303;-77
2022/10/10 06:43:51;;;;;;;6.30;4.00;;;;;;;;;;5013793;28;20235;-74
2022/10/10 06:46:17;;;;;;;11.03;4.40;;;;;;;;;;5016838;28;20225;-76
2022/10/10 06:48:42;;;;;;;5.57;3.40;;;;;;;;;;5015902;28;20232;-76
2022/10/10 06:51:12;;;;;;;5.70;2.97;;;;;;;;;;4994183;28;20229;-74
2022/10/10 06:53:40;;;;;;;2.90;2.70;;;;;;;;;;5013524;28;20223;-74
2022/10/10 06:56:08;;;;;;;5.60;3.60;;;;;;;;;;4979223;28;20233;-75
2022/10/10 06:58:34;;;;;;;4.07;3.20;;;;;;;;;;4978133;28;20224;-76
2022/10/10 07:01:03;;;;;;;3.27;2.90;;;;;;;;;;4982845;28;20225;-76
2022/10/10 07:03:28;;;;;;;5.07;2.80;;;;;;;;;;4984507;28;20303;-76
2022/10/10 07:05:55;;;;;;;5.80;3.63;;;;;;;;;;4985578;28;20217;-77
2022/10/10 07:08:23;;;;;;;11.70;9.77;;;;;;;;;;5018588;28;20225;-74
2022/10/10 07:10:49;;;;;;;5.63;5.10;;;;;;;;;;5000782;28;20746;-76
2022/10/10 07:13:15;;;;;;;7.43;6.73;;;;;;;;;;4998300;28;20261;-76
2022/10/10 07:15:40;;;;;;;9.20;8.23;;;;;;;;;;5015050;28;20221;-75
2022/10/10 07:18:06;;;;;;;7.73;5.93;;;;;;;;;;5013463;28;20228;-77
2022/10/10 07:20:33;;;;;;;7.27;4.37;;;;;;;;;;4979168;28;20736;-74
2022/10/10 07:22:58;;;;;;;5.20;3.87;;;;;;;;;;5007616;28;20252;-75
2022/10/10 07:25:24;;;;;;;5.23;4.07;;;;;;;;;;4998845;28;20252;-76
2022/10/10 07:27:51;;;;;;;5.80;3.80;;;;;;;;;;5032363;28;20228;-76
2022/10/10 07:30:20;;;;;;;5.23;3.80;;;;;;;;;;5017351;28;20606;-76
2022/10/10 07:32:45;;;;;;;5.07;4.53;;;;;;;;;;5000807;28;20231;-74
2022/10/10 07:35:11;;;;;;;4.57;3.77;;;;;;;;;;5002218;28;20221;-76
2022/10/10 07:37:37;;;;;;;3.10;2.80;;;;;;;;;;5027205;28;20314;-76
2022/10/10 07:40:07;;;;;;;6.63;3.20;;;;;;;;;;5028114;28;20248;-76
2022/10/10 07:42:35;;;;;;;5.70;4.20;;;;;;;;;;4982206;28;20224;-75
2022/10/10 07:45:01;;;;;;;3.37;2.90;;;;;;;;;;5033323;28;20687;-76
2022/10/10 07:47:28;;;;;;;4.80;3.10;;;;;;;;;;5000984;28;20407;-75
2022/10/10 07:49:53;;;;;;;5.10;2.87;;;;;;;;;;5015083;28;20236;-73
2022/10/10 07:52:22;;;;;;;4.57;2.47;;;;;;;;;;5013955;28;20220;-76
2022/10/10 07:54:50;;;;;;;2.90;2.20;;;;;;;;;;5019302;28;20274;-75
2022/10/10 07:57:15;;;;;;;3.90;2.27;;;;;;;;;;5015518;28;20220;-74
2022/10/10 07:59:44;;;;;;;3.23;2.13;;;;;;;;;;5016913;28;20252;-76
2022/10/10 08:02:10;;;;;;;4.33;2.37;;;;;;;;;;5016691;28;20701;-74
2022/10/10 08:04:38;;;;;;;4.33;2.37;;;;;;;;;;5001623;28;20315;-75
2022/10/10 08:07:04;;;;;;;4.53;2.30;;;;;;;;;;4992807;28;20232;-76
2022/10/10 08:09:32;;;;;;;4.80;2.07;;;;;;;;;;5029639;28;20251;-75
2022/10/10 08:11:59;;;;;;;2.60;1.80;;;;;;;;;;5014033;28;20224;-75
2022/10/10 08:14:27;;;;;;;4.20;2.03;;;;;;;;;;5004600;28;20224;-76
2022/10/10 08:16:55;;;;;;;4.13;2.10;;;;;;;;;;5013021;28;20256;-75
2022/10/10 08:19:21;;;;;;;2.20;2.00;;;;;;;;;;4997787;28;20231;-75
2022/10/10 08:21:46;;;;;;;2.30;1.83;;;;;;;;;;5016626;28;20221;-75
2022/10/10 08:24:14;;;;;;;2.43;1.73;;;;;;;;;;4993090;28;20224;-75
2022/10/10 08:26:39;;;;;;;5.87;2.10;;;;;;;;;;4963016;28;20591;-74
2022/10/10 08:29:09;;;;;;;4.10;2.00;;;;;;;;;;4979224;28;20224;-74
2022/10/10 08:31:35;;;;;;;3.17;1.83;;;;;;;;;;5028523;28;20763;-75
2022/10/10 08:34:00;;;;;;;3.10;2.00;;;;;;;;;;5013007;28;20227;-75
2022/10/10 08:36:28;;;;;;;3.17;2.03;;;;;;;;;;4997976;28;20702;-76
2022/10/10 08:38:56;;;;;;;2.87;1.70;;;;;;;;;;5012414;28;20216;-76
2022/10/10 08:41:47;;;;;;;2.70;1.80;;;;;;;;;;4998361;28;20221;-76
2022/10/10 08:44:18;;;;;;;3.70;1.93;;;;;;;;;;5015797;28;20347;-77
2022/10/10 08:46:49;;;;;;;3.43;1.83;;;;;;;;;;5032228;28;20236;-75
2022/10/10 08:50:03;;;;;;;2.43;1.80;;;;;;;;;;5015349;28;20667;-75
2022/10/10 08:52:44;;;;;;;3.93;1.40;;;;;;;;;;4996661;28;20297;-74
2022/10/10 08:55:32;;;;;;;1.63;1.53;;;;;;;;;;5012033;28;20268;-76
2022/10/10 08:58:24;;;;;;;2.80;1.70;;;;;;;;;;4993022;28;20236;-75
2022/10/10 09:00:54;;;;;;;3.30;1.50;;;;;;;;;;5011336;28;20228;-74
2022/10/10 09:03:34;;;;;;;2.33;1.50;;;;;;;;;;4998887;28;20221;-75
2022/10/10 09:06:18;;;;;;;1.77;1.40;;;;;;;;;;4999818;28;20240;-75
2022/10/10 09:08:58;;;;;;;1.97;1.40;;;;;;;;;;5016325;28;20618;-74
2022/10/10 09:11:30;;;;;;;2.30;1.50;;;;;;;;;;5011981;28;20233;-76
2022/10/10 09:14:10;;;;;;;1.50;1.40;;;;;;;;;;5013410;28;20258;-76
2022/10/10 09:16:40;;;;;;;2.27;1.70;;;;;;;;;;5026849;28;20729;-74
2022/10/10 09:19:23;;;;;;;4.13;1.57;;;;;;;;;;4994858;28;20286;-74
2022/10/10 09:21:53;;;;;;;4.47;4.07;;;;;;;;;;5013286;28;20228;-75
2022/10/10 09:24:39;;;;;;;2.37;1.83;;;;;;;;;;4996894;28;20308;-74
2022/10/10 09:27:13;;;;;;;2.57;1.70;;;;;;;;;;5011341;28;20232;-74
2022/10/10 09:29:45;;;;;;;2.67;1.70;;;;;;;;;;4991639;28;20221;-75
2022/10/10 09:32:12;;;;;;;2.27;1.50;;;;;;;;;;4980056;28;20222;-75
2022/10/10 09:35:20;;;;;;;1.40;1.13;;;;;;;;;;5027408;28;20229;-73
2022/10/10 09:37:48;;;;;;;3.10;1.43;;;;;;;;;;5016211;28;20243;-73
2022/10/10 09:40:33;;;;;;;2.83;1.40;;;;;;;;;;4979861;28;20223;-74
2022/10/10 09:43:13;;;;;;;2.03;1.57;;;;;;;;;;5005687;28;20777;-73
2022/10/10 09:45:43;;;;;;;2.10;1.43;;;;;;;;;;5000034;28;20229;-75
2022/10/10 09:48:11;;;;;;;4.57;1.70;;;;;;;;;;5002279;28;20220;-75
2022/10/10 09:50:37;;;;;;;4.28;1.50;;;;;;;;;;5018027;28;20265;-75
2022/10/10 09:53:05;;;;;;;2.63;1.70;;;;;;;;;;4982206;28;20229;-75
2022/10/10 09:55:36;;;;;;;2.47;1.58;;;;;;;;;;5001158;28;20282;-75
2022/10/10 09:58:38;;;;;;;4.07;1.58;;;;;;;;;;4982452;28;20220;-76
2022/10/10 10:01:13;;;;;;;2.92;1.58;;;;;;;;;;4998017;28;20232;-75
2022/10/10 10:03:41;;;;;;;1.90;1.52;;;;;;;;;;5018190;28;20225;-77
2022/10/10 10:06:13;;;;;;;4.38;1.48;;;;;;;;;;4997175;28;20235;-75
2022/10/10 10:08:41;;;;;;;2.65;1.60;;;;;;;;;;5014385;28;20339;-75
2022/10/10 10:11:22;;;;;;;2.38;1.55;;;;;;;;;;5012006;28;20220;-75
2022/10/10 10:13:52;;;;;;;6.32;1.45;;;;;;;;;;5018653;28;20225;-75
2022/10/10 10:16:18;;;;;;;2.25;1.40;;;;;;;;;;4999249;28;20235;-73
2022/10/10 10:18:46;;;;;;;1.50;1.35;;;;;;;;;;5003498;28;20228;-76
2022/10/10 10:21:17;;;;;;;1.45;1.30;;;;;;;;;;4984697;28;20308;-74
2022/10/10 10:24:01;;;;;;;1.60;1.40;;;;;;;;;;5017680;28;20228;-73
2022/10/10 10:26:41;;;;;;;3.15;1.52;;;;;;;;;;4985820;28;20231;-74
2022/10/10 10:29:29;;;;;;;1.90;1.40;;;;;;;;;;5023605;28;20295;-73
2022/10/10 10:32:06;;;;;;;1.98;1.77;;;;;;;;;;5018203;28;20307;-75
2022/10/10 10:34:59;;;;;;;1.67;1.50;;;;;;;;;;5018248;28;20231;-72
2022/10/10 10:37:30;;;;;;;2.28;1.38;;;;;;;;;;4999566;28;20762;-76
2022/10/10 10:39:58;;;;;;;2.67;1.55;;;;;;;;;;5014485;28;20232;-76
2022/10/10 10:43:09;;;;;;;1.90;1.30;;;;;;;;;;5033659;28;20288;-74
2022/10/10 10:45:39;;;;;;;2.83;1.45;;;;;;;;;;5000073;28;20220;-76
2022/10/10 10:48:20;;;;;;;1.83;1.38;;;;;;;;;;5016712;28;20255;-75
2022/10/10 10:50:52;;;;;;;2.80;1.50;;;;;;;;;;4985876;28;20240;-75
2022/10/10 10:53:49;;;;;;;3.40;1.67;;;;;;;;;;5029744;28;20229;-76
2022/10/10 10:56:41;;;;;;;2.17;1.33;;;;;;;;;;5011935;28;20251;-74
2022/10/10 10:59:35;;;;;;;2.65;1.67;;;;;;;;;;5020117;28;20221;-75
2022/10/10 11:02:06;;;;;;;1.85;1.60;;;;;;;;;;5016596;28;21057;-75
2022/10/10 11:04:34;;;;;;;5.70;2.95;;;;;;;;;;5015587;28;20762;-75
2022/10/10 11:07:18;;;;;;;5.60;4.97;;;;;;;;;;5000176;28;20247;-74
2022/10/10 11:09:48;;;;;;;5.18;4.40;;;;;;;;;;5013827;28;20221;-74
2022/10/10 11:13:05;;;;;;;5.53;4.53;;;;;;;;;;4998957;28;20710;-75
2022/10/10 11:15:44;;;;;;;5.22;4.55;;;;;;;;;;4996960;28;20304;-75
2022/10/10 11:18:13;;;;;;;4.60;3.95;;;;;;;;;;4995252;28;20705;-76
2022/10/10 11:21:05;;;;;;;5.45;3.63;;;;;;;;;;5016066;28;20229;-76
2022/10/10 11:23:40;;;;;;;3.88;2.03;;;;;;;;;;5010518;28;20858;-76
2022/10/10 11:26:09;;;;;;;2.65;1.88;;;;;;;;;;4983014;28;20271;-75
2022/10/10 11:28:40;;;;;;;2.38;1.60;;;;;;;;;;5000018;28;20704;-74
2022/10/10 11:31:09;;;;;;;2.33;1.50;;;;;;;;;;4999987;28;20748;-74
2022/10/10 11:33:44;;;;;;;3.10;1.60;;;;;;;;;;5011441;28;20220;-75
2022/10/10 11:36:12;;;;;;;2.47;1.30;;;;;;;;;;4983300;28;20224;-78
2022/10/10 11:38:48;;;;;;;5.13;1.65;;;;;;;;;;5016075;28;20848;-78
2022/10/10 11:41:17;;;;;;;3.65;1.77;;;;;;;;;;4991275;28;20225;-76
2022/10/10 11:43:47;;;;;;;1.70;1.50;;;;;;;;;;5015341;28;20336;-77
2022/10/10 11:46:49;;;;;;;1.60;1.50;;;;;;;;;;5028109;28;20236;-75
2022/10/10 11:49:18;;;;;;;5.65;1.42;;;;;;;;;;4979043;28;20298;-76
2022/10/10 11:51:58;;;;;;;2.78;1.90;;;;;;;;;;4968374;28;20239;-76
2022/10/10 11:54:58;;;;;;;3.15;1.50;;;;;;;;;;4983781;28;20225;-75
2022/10/10 11:57:38;;;;;;;2.08;1.50;;;;;;;;;;5008908;28;20251;-76
2022/10/10 12:00:06;;;;;;;2.33;1.52;;;;;;;;;;4994686;28;20221;-76
2022/10/10 12:02:33;;;;;;;2.15;1.50;;;;;;;;;;4996325;28;20689;-76
2022/10/10 12:04:59;;;;;;;1.83;1.50;;;;;;;;;;4979921;28;20958;-75
2022/10/10 12:07:39;;;;;;;6.57;1.50;;;;;;;;;;5013094;28;20224;-76
2022/10/10 12:10:18;;;;;;;2.95;1.75;;;;;;;;;;4999070;28;20229;-75
2022/10/10 12:12:45;;;;;;;3.75;1.70;;;;;;;;;;5000784;28;20224;-75
2022/10/10 12:15:27;;;;;;;1.67;1.58;;;;;;;;;;4994812;28;20228;-77
2022/10/10 12:17:55;;;;;;;3.47;1.88;;;;;;;;;;4968618;28;20633;-77
2022/10/10 12:20:26;;;;;;;3.92;1.67;;;;;;;;;;4993225;28;20208;-76
2022/10/10 12:23:30;;;;;;;2.70;1.60;;;;;;;;;;5013016;28;20227;-76
2022/10/10 12:25:57;;;;;;;2.97;2.05;;;;;;;;;;4999108;28;20302;-75
2022/10/10 12:28:24;;;;;;;2.30;1.92;;;;;;;;;;4986966;28;20409;-76
2022/10/10 12:30:53;;;;;;;2.45;1.98;;;;;;;;;;5014655;28;20229;-75
2022/10/10 12:33:21;;;;;;;2.88;2.08;;;;;;;;;;4996480;28;20224;-75
2022/10/10 12:35:48;;;;;;;3.88;1.98;;;;;;;;;;5017274;28;20511;-76
2022/10/10 12:38:18;;;;;;;2.42;1.60;;;;;;;;;;4982735;28;20228;-76
2022/10/10 12:40:56;;;;;;;4.15;1.90;;;;;;;;;;4983177;28;20217;-76
2022/10/10 12:43:59;;;;;;;3.35;1.70;;;;;;;;;;5014155;28;20358;-78
2022/10/10 12:46:31;;;;;;;2.00;1.77;;;;;;;;;;5013208;28;20291;-77
2022/10/10 12:49:17;;;;;;;4.05;1.50;;;;;;;;;;4996127;28;20226;-76
2022/10/10 12:51:43;;;;;;;7.45;1.80;;;;;;;;;;4996605;28;20316;-76
2022/10/10 12:54:24;;;;;;;1.98;1.75;;;;;;;;;;4999240;28;20220;-76
2022/10/10 12:56:51;;;;;;;6.25;1.92;;;;;;;;;;4990180;28;20227;-76
2022/10/10 12:59:19;;;;;;;3.08;1.63;;;;;;;;;;5013952;28;20255;-75
2022/10/10 13:01:49;;;;;;;3.78;1.60;;;;;;;;;;5007626;28;20232;-77
2022/10/10 13:04:16;;;;;;;6.22;1.70;;;;;;;;;;5008201;28;20249;-76
2022/10/10 13:06:42;;;;;;;1.92;1.40;;;;;;;;;;4994694;28;20221;-75
2022/10/10 13:09:15;;;;;;;2.78;1.60;;;;;;;;;;4991068;28;20224;-77
2022/10/10 13:11:51;;;;;;;4.70;1.70;;;;;;;;;;5012159;28;20311;-77
2022/10/10 13:14:16;;;;;;;2.67;1.67;;;;;;;;;;5013613;28;20232;-76
2022/10/10 13:16:44;;;;;;;2.15;1.52;;;;;;;;;;5007443;28;20235;-75
2022/10/10 13:19:23;;;;;;;2.80;1.40;;;;;;;;;;4995619;28;20729;-76
2022/10/10 13:21:50;;;;;;;3.30;1.80;;;;;;;;;;5014414;28;20223;-76
2022/10/10 13:24:18;;;;;;;3.47;1.50;;;;;;;;;;4985244;28;20220;-77
2022/10/10 13:26:49;;;;;;;1.50;1.17;;;;;;;;;;4983580;28;20282;-76
2022/10/10 13:29:32;;;;;;;1.73;1.60;;;;;;;;;;5016116;28;20790;-76
2022/10/10 13:32:05;;;;;;;2.33;1.30;;;;;;;;;;4976577;28;20632;-76
2022/10/10 13:34:35;;;;;;;2.88;1.63;;;;;;;;;;4998072;28;20224;-76
2022/10/10 13:37:01;;;;;;;2.88;1.45;;;;;;;;;;4987013;28;20964;-77
2022/10/10 13:39:30;;;;;;;2.58;1.75;;;;;;;;;;4995606;28;21020;-77
2022/10/10 13:41:58;;;;;;;2.45;1.50;;;;;;;;;;4997453;28;20243;-76
2022/10/10 13:44:33;;;;;;;1.50;1.38;;;;;;;;;;5003926;28;20221;-73
2022/10/10 13:47:29;;;;;;;3.78;1.40;;;;;;;;;;4978318;28;20278;-76
2022/10/10 13:49:59;;;;;;;3.83;1.67;;;;;;;;;;5016856;28;20247;-76
2022/10/10 13:52:27;;;;;;;2.65;1.67;;;;;;;;;;4995593;28;20279;-76
2022/10/10 13:54:52;;;;;;;3.13;1.50;;;;;;;;;;5023111;28;20222;-76
2022/10/10 13:57:23;;;;;;;1.90;1.65;;;;;;;;;;4998335;28;20734;-79
2022/10/10 14:00:03;;;;;;;2.92;1.58;;;;;;;;;;4986263;28;20309;-78
2022/10/10 14:02:32;;;;;;;6.07;1.70;;;;;;;;;;5014709;28;20227;-77
2022/10/10 14:04:57;;;;;;;2.83;1.65;;;;;;;;;;5001467;28;20221;-76
2022/10/10 14:07:27;;;;;;;2.42;1.60;;;;;;;;;;4999097;28;20250;-77
2022/10/10 14:10:01;;;;;;;3.20;1.60;;;;;;;;;;5013305;28;20251;-76
2022/10/10 14:12:38;;;;;;;3.25;1.52;;;;;;;;;;5001953;28;20224;-75
2022/10/10 14:15:24;;;;;;;3.35;1.83;;;;;;;;;;5031728;28;20857;-77
2022/10/10 14:17:49;;;;;;;2.78;1.80;;;;;;;;;;5001728;28;20826;-77
2022/10/10 14:20:15;;;;;;;4.35;1.42;;;;;;;;;;5000594;28;20223;-76
2022/10/10 14:22:41;;;;;;;3.35;1.98;;;;;;;;;;5014353;28;20230;-76
2022/10/10 14:25:09;;;;;;;3.50;1.80;;;;;;;;;;4985627;28;20220;-77
2022/10/10 14:27:34;;;;;;;2.90;1.52;;;;;;;;;;4998057;28;20233;-76
2022/10/10 14:30:02;;;;;;;2.55;1.67;;;;;;;;;;5015546;28;20231;-76
2022/10/10 14:32:28;;;;;;;6.13;1.83;;;;;;;;;;5014366;28;20633;-76
2022/10/10 14:34:53;;;;;;;1.75;1.55;;;;;;;;;;4984822;28;20782;-76
2022/10/10 14:37:25;;;;;;;1.58;1.48;;;;;;;;;;5018328;28;20283;-76
2022/10/10 14:39:51;;;;;;;3.47;1.75;;;;;;;;;;5015051;28;20721;-75
2022/10/10 14:42:19;;;;;;;4.63;1.92;;;;;;;;;;4981593;28;20225;-75
2022/10/10 14:44:47;;;;;;;4.25;1.70;;;;;;;;;;4997426;28;20299;-77
2022/10/10 14:47:17;;;;;;;2.47;1.58;;;;;;;;;;4982823;28;20559;-73
2022/10/10 14:49:43;;;;;;;3.30;1.58;;;;;;;;;;5017196;28;20242;-75
2022/10/10 14:52:08;;;;;;;1.63;1.33;;;;;;;;;;4997912;28;20244;-75
2022/10/10 14:54:39;;;;;;;2.53;1.63;;;;;;;;;;5029673;28;20227;-76
2022/10/10 14:57:04;;;;;;;2.38;1.38;;;;;;;;;;4983551;28;20315;-76
2022/10/10 14:59:30;;;;;;;3.65;1.73;;;;;;;;;;5001119;28;20306;-75
2022/10/10 15:01:55;;;;;;;3.05;1.90;;;;;;;;;;5016517;28;20227;-77
2022/10/10 15:04:23;;;;;;;2.53;1.77;;;;;;;;;;4998194;28;20220;-76
2022/10/10 15:06:48;;;;;;;3.47;1.50;;;;;;;;;;5016692;28;20597;-75